Meath Environmental Platform

Observations

Time Sensor AQI SAQ Temp °C Hum % Pres Pa CO μg/m³ H₂S μg/m³ NO μg/m³ NO₂ μg/m³ O₃ μg/m³ SO₂ μg/m³ CO₂e PPM VOC PPM PM1 μg/m³ PM2.5 μg/m³ PM4 μg/m³ PM10 μg/m³ TPS µm
Wednesday 12 August 2026
14:29 Trim Market St 2 36.6 31 66,702 0 3.54 0.19 20.69 64.59 0.2 2.14 5.45 5.99
14:29 Trim Patrick St 3 34 36 69,527 0 10.23 0.38 24.38 79.84 18.21 3.71 9.66 10.63
14:28 Trim Patrick St 2 34 36 69,517 0 2.09 0.38 12.66 101.89 18.12 3.71 9.65 10.61
14:27 Trim Market St 2 36.6 31 66,710 0 0 0.18 14.13 71.98 0 1.43 4.91 5.4
14:27 Trim Patrick St 2 33.9 36 69,534 0 4.28 0.4 12.41 98.48 18.67 4.57 10.45 11.49
14:26 Trim Patrick St 2 33.9 36 69,523 0 6.01 0.4 13.47 78.25 17.89 5.43 12.04 13.24
14:25 Trim Patrick St 2 33.9 36 69,513 0 10.08 0.4 17.83 108.33 18.5 5.43 12.02 13.23
14:24 Trim Patrick St 2 33.9 36 69,501 0 4.42 0.39 13.58 101.79 17.7 5.43 11.24 12.36
14:23 Trim Patrick St 2 33.9 37 69,509 0 6.14 0.38 13.66 105.27 17.31 4.57 10.4 11.44
14:22 Trim Patrick St 2 33.9 36 69,523 0 8.11 0.39 12.85 99.4 18.58 3.71 9.64 10.6
14:21 Trim Patrick St 2 33.8 36 69,515 0 11.06 0.4 21.71 106.44 18.36 5.43 11.23 12.35
14:21 Trim Market St 2 36.6 31 66,718 0 3.21 0.08 20.53 70.98 0 2.14 5.45 6.66
14:20 Trim Patrick St 2 33.8 36 69,505 0 5.29 0.41 13.13 92.64 17.25 4.57 10.44 11.48
14:19 Trim Patrick St 2 33.8 37 69,521 0 8.28 0.4 13.58 108.72 18.09 4.57 10.42 11.46
14:19 Trim Market St 2 36.6 31 66,690 0 11.84 0 36.1 72.16 0 3.56 6.52 6.67
14:18 Trim Patrick St 2 33.8 37 69,507 0 10.65 0.4 15.54 118.27 18.76 4.57 10.42 11.46
14:18 Trim Market St 2 36.6 31 66,686 0 6.92 0 19.45 71.69 0.31 2.14 6.53 6.66
14:14 Trim Patrick St 2 33.8 36 69,475 0 5.18 0.41 12.36 86 17.81 5.43 11.23 12.35
14:13 Trim Patrick St 2 33.8 37 69,483 0 10.41 0.39 12.77 109.11 18.23 3.71 10.39 11.43
14:12 Trim Patrick St 2 33.7 37 69,491 0 10.26 0.4 13.43 116.19 17.59 5.43 11.97 13.17